Time;durP1;ratioP1;P1;durP2;ratioP2;P2;SDS_P1;SDS_P2;PMS_P1;PMS_P2;Temp;Humidity;BMP_temperature;BMP_pressure;BME280_temperature;BME280_humidity;BME280_pressure;Samples;Min_cycle;Max_cycle;Signal;HPM_P1;HPM_P2
2023/05/31 00:01:03;;;;;;;4.33;2.10;;;13.70;99.90;;;;;;5032976;28;20315;-78
2023/05/31 00:03:30;;;;;;;4.37;2.17;;;13.70;99.90;;;;;;5017184;28;20200;-78
2023/05/31 00:05:57;;;;;;;4.27;2.30;;;13.70;99.90;;;;;;5016884;28;20586;-78
2023/05/31 00:08:24;;;;;;;5.27;2.30;;;13.70;99.90;;;;;;5016581;28;20195;-77
2023/05/31 00:10:51;;;;;;;5.57;2.30;;;13.60;99.90;;;;;;5016802;28;20250;-77
2023/05/31 00:13:18;;;;;;;6.03;2.20;;;13.50;99.90;;;;;;5000433;28;20350;-77
2023/05/31 00:15:45;;;;;;;5.83;2.40;;;13.50;99.90;;;;;;5000897;28;20279;-77
2023/05/31 00:18:12;;;;;;;6.53;2.50;;;13.40;99.90;;;;;;5034845;28;20199;-77
2023/05/31 00:20:39;;;;;;;5.10;2.17;;;13.40;99.90;;;;;;5034494;28;20593;-78
2023/05/31 00:23:06;;;;;;;5.93;2.37;;;13.30;99.90;;;;;;5034596;28;20191;-78
2023/05/31 00:25:33;;;;;;;4.00;2.00;;;13.40;99.90;;;;;;5016905;28;20397;-77
2023/05/31 00:28:00;;;;;;;5.60;2.40;;;13.30;99.90;;;;;;5017402;28;20682;-80
2023/05/31 00:30:27;;;;;;;5.57;2.27;;;13.30;99.90;;;;;;5016935;28;20219;-80
2023/05/31 00:32:54;;;;;;;4.43;2.30;;;13.20;99.90;;;;;;5016504;28;20219;-81
2023/05/31 00:35:22;;;;;;;5.73;2.40;;;13.20;99.90;;;;;;5032892;28;20227;-81
2023/05/31 00:37:49;;;;;;;3.40;2.17;;;13.20;99.90;;;;;;5034376;28;20273;-80
2023/05/31 00:40:16;;;;;;;4.53;2.07;;;13.10;99.90;;;;;;5034354;28;20227;-81
2023/05/31 00:42:43;;;;;;;4.93;2.20;;;13.10;99.90;;;;;;5034350;28;20647;-80
2023/05/31 00:45:11;;;;;;;5.67;2.23;;;13.10;99.90;;;;;;5016418;28;20219;-81
2023/05/31 00:47:38;;;;;;;5.47;2.10;;;13.00;99.90;;;;;;5034165;28;20199;-80
2023/05/31 00:50:06;;;;;;;3.87;1.90;;;13.00;99.90;;;;;;5016880;28;20214;-81
2023/05/31 00:52:34;;;;;;;4.73;2.07;;;12.90;99.90;;;;;;5015986;28;20270;-81
2023/05/31 00:55:02;;;;;;;6.50;2.10;;;13.00;99.90;;;;;;5016634;28;20235;-81
2023/05/31 00:57:30;;;;;;;5.07;2.27;;;12.80;99.90;;;;;;5033959;28;20215;-80
2023/05/31 00:59:57;;;;;;;4.87;1.87;;;12.80;99.90;;;;;;5015653;28;20219;-81
2023/05/31 01:02:25;;;;;;;5.93;2.10;;;12.70;99.90;;;;;;5015923;28;20295;-82
2023/05/31 01:04:52;;;;;;;4.03;2.03;;;12.80;99.90;;;;;;4999390;28;20220;-81
2023/05/31 01:07:19;;;;;;;5.10;1.80;;;12.70;99.90;;;;;;5016163;28;20554;-82
2023/05/31 01:09:46;;;;;;;5.47;2.20;;;12.70;99.90;;;;;;5015657;28;20225;-81
2023/05/31 01:12:32;;;;;;;6.23;2.17;;;12.70;99.90;;;;;;5015578;28;20207;-82
2023/05/31 01:15:13;;;;;;;4.77;1.80;;;12.60;99.90;;;;;;5033299;28;20619;-82
2023/05/31 01:18:02;;;;;;;4.20;1.83;;;12.60;99.90;;;;;;5015590;28;20286;-81
2023/05/31 01:20:34;;;;;;;4.67;2.10;;;12.50;99.90;;;;;;5015162;28;20706;-82
2023/05/31 01:23:39;;;;;;;4.07;2.10;;;12.50;99.90;;;;;;5033354;28;20238;-80
2023/05/31 01:26:32;;;;;;;6.47;2.20;;;12.50;99.90;;;;;;5032984;28;20206;-81
2023/05/31 01:29:07;;;;;;;6.37;2.67;;;12.40;99.90;;;;;;5032221;28;20194;-80
2023/05/31 01:31:35;;;;;;;4.40;2.30;;;12.30;99.90;;;;;;5015345;28;20179;-80
2023/05/31 01:34:04;;;;;;;6.37;2.30;;;12.30;99.90;;;;;;5015453;28;20610;-80
2023/05/31 01:36:31;;;;;;;5.80;2.10;;;12.20;99.90;;;;;;5015424;28;20286;-80
2023/05/31 01:39:00;;;;;;;3.90;2.13;;;12.20;99.90;;;;;;5032651;28;20750;-81
2023/05/31 01:41:29;;;;;;;5.13;2.37;;;12.20;99.90;;;;;;5031320;28;20221;-80
2023/05/31 01:43:57;;;;;;;5.20;2.20;;;12.10;99.90;;;;;;5032820;28;20359;-81
2023/05/31 01:46:26;;;;;;;5.97;2.30;;;12.00;99.90;;;;;;5014863;28;20211;-80
2023/05/31 01:48:53;;;;;;;5.43;2.33;;;12.00;99.90;;;;;;5014911;28;20668;-80
2023/05/31 01:51:21;;;;;;;5.63;1.83;;;12.00;99.90;;;;;;5015400;28;20246;-81
2023/05/31 01:53:48;;;;;;;5.53;2.23;;;12.00;99.90;;;;;;5032834;28;20216;-79
2023/05/31 01:56:18;;;;;;;5.07;2.40;;;11.90;99.90;;;;;;5015426;28;20191;-80
2023/05/31 01:58:48;;;;;;;5.80;2.27;;;11.90;99.90;;;;;;5032742;28;20187;-79
2023/05/31 02:01:17;;;;;;;4.77;2.10;;;11.90;99.90;;;;;;5032686;28;20187;-80
2023/05/31 02:03:44;;;;;;;4.40;2.20;;;11.90;99.90;;;;;;5014990;28;20205;-81
2023/05/31 02:06:14;;;;;;;5.47;2.10;;;11.80;99.90;;;;;;5014775;28;20192;-81
2023/05/31 02:08:41;;;;;;;4.83;2.20;;;11.80;99.90;;;;;;5015075;28;20655;-80
2023/05/31 02:11:08;;;;;;;6.70;2.20;;;11.70;99.90;;;;;;5014965;28;20239;-81
2023/05/31 02:13:35;;;;;;;5.50;2.60;;;11.70;99.90;;;;;;5015053;28;20223;-80
2023/05/31 02:16:05;;;;;;;4.13;1.83;;;11.70;99.90;;;;;;5015239;28;20306;-81
2023/05/31 02:18:32;;;;;;;6.07;1.80;;;11.70;99.90;;;;;;5015660;28;20195;-80
2023/05/31 02:20:59;;;;;;;4.33;2.00;;;11.70;99.90;;;;;;5006898;28;20331;-80
2023/05/31 02:23:26;;;;;;;4.53;2.03;;;11.60;99.90;;;;;;5011673;28;20246;-81
2023/05/31 02:25:55;;;;;;;3.67;1.90;;;11.60;99.90;;;;;;5012815;28;20282;-80
2023/05/31 02:28:22;;;;;;;4.20;1.77;;;11.60;99.90;;;;;;4995876;28;20638;-80
2023/05/31 02:30:57;;;;;;;4.93;1.97;;;11.50;99.90;;;;;;4996085;28;20299;-81
2023/05/31 02:33:24;;;;;;;2.87;1.70;;;11.50;99.90;;;;;;5012984;28;20216;-81
2023/05/31 02:35:52;;;;;;;5.60;1.63;;;11.50;99.90;;;;;;5011502;28;20251;-80
2023/05/31 02:38:20;;;;;;;5.53;1.97;;;11.50;99.90;;;;;;4995584;28;20250;-79
2023/05/31 02:40:47;;;;;;;3.07;1.70;;;11.50;99.90;;;;;;5013232;28;20625;-80
2023/05/31 02:43:14;;;;;;;5.97;2.00;;;11.50;99.90;;;;;;5013395;28;20242;-80
2023/05/31 02:45:42;;;;;;;4.47;1.67;;;11.50;99.90;;;;;;4994934;28;20227;-80
2023/05/31 02:48:09;;;;;;;5.43;2.00;;;11.50;99.90;;;;;;4995579;28;20231;-80
2023/05/31 02:50:36;;;;;;;4.30;1.80;;;11.50;99.90;;;;;;4995400;28;20323;-79
2023/05/31 02:53:06;;;;;;;4.80;1.60;;;11.50;99.90;;;;;;4995536;28;20244;-80
2023/05/31 02:55:33;;;;;;;4.30;1.90;;;11.50;99.90;;;;;;5011633;28;20216;-81
2023/05/31 02:58:00;;;;;;;3.23;1.43;;;11.50;99.90;;;;;;4979143;28;20714;-79
2023/05/31 03:00:27;;;;;;;5.03;1.80;;;11.40;99.90;;;;;;4979014;28;20287;-80
2023/05/31 03:02:54;;;;;;;4.73;1.87;;;11.50;99.90;;;;;;4978564;28;20288;-81
2023/05/31 03:05:23;;;;;;;5.13;1.90;;;11.50;99.90;;;;;;5003247;28;20224;-80
2023/05/31 03:07:50;;;;;;;4.57;1.67;;;11.50;99.90;;;;;;5011320;28;20205;-80
2023/05/31 03:10:18;;;;;;;5.10;1.90;;;11.40;99.90;;;;;;4994938;28;20232;-81
2023/05/31 03:12:44;;;;;;;4.67;1.73;;;11.50;99.90;;;;;;5010990;28;20192;-81
2023/05/31 03:15:12;;;;;;;5.30;1.83;;;11.50;99.90;;;;;;4994365;28;20314;-81
2023/05/31 03:17:39;;;;;;;2.97;1.60;;;11.50;99.90;;;;;;4978777;28;20231;-80
2023/05/31 03:20:09;;;;;;;3.13;1.60;;;11.60;99.90;;;;;;4994337;28;20320;-79
2023/05/31 03:22:37;;;;;;;4.93;1.43;;;11.60;99.90;;;;;;5026083;28;20188;-80
2023/05/31 03:25:05;;;;;;;3.70;1.67;;;11.60;99.90;;;;;;5014149;28;20221;-80
2023/05/31 03:27:32;;;;;;;4.50;1.53;;;11.60;99.90;;;;;;5030884;28;20199;-79
2023/05/31 03:30:00;;;;;;;5.53;1.77;;;11.60;99.90;;;;;;5032355;28;20354;-79
2023/05/31 03:32:27;;;;;;;4.03;1.60;;;11.60;99.90;;;;;;5032375;28;20190;-80
2023/05/31 03:34:54;;;;;;;3.43;1.40;;;11.70;99.90;;;;;;5016284;28;20223;-79
2023/05/31 03:37:21;;;;;;;4.60;1.40;;;11.70;99.90;;;;;;5017831;28;20195;-80
2023/05/31 03:39:48;;;;;;;4.23;1.50;;;11.70;99.90;;;;;;5018221;28;20215;-78
2023/05/31 03:42:15;;;;;;;10.37;1.80;;;11.70;99.90;;;;;;5035794;28;20188;-80
2023/05/31 03:44:43;;;;;;;3.63;1.40;;;11.80;99.90;;;;;;5017998;28;20219;-81
2023/05/31 03:47:11;;;;;;;3.07;1.50;;;11.80;99.90;;;;;;5001220;28;20211;-81
2023/05/31 03:49:37;;;;;;;3.77;1.53;;;11.90;99.90;;;;;;5033512;28;20215;-80
2023/05/31 03:52:05;;;;;;;5.00;1.57;;;11.90;99.90;;;;;;5017156;28;20238;-81
2023/05/31 03:54:32;;;;;;;2.93;1.30;;;12.00;99.90;;;;;;5001501;28;20234;-82
2023/05/31 03:57:00;;;;;;;3.87;1.30;;;12.10;99.90;;;;;;5035080;28;20709;-81
2023/05/31 03:59:27;;;;;;;4.63;1.60;;;12.10;99.90;;;;;;5034992;28;20212;-81
2023/05/31 04:01:55;;;;;;;6.03;1.70;;;12.20;99.90;;;;;;5035362;28;20241;-80
2023/05/31 04:04:21;;;;;;;5.13;1.80;;;12.20;99.90;;;;;;5017593;28;20246;-80
2023/05/31 04:06:48;;;;;;;4.93;1.50;;;12.20;99.90;;;;;;5035238;28;20199;-79
2023/05/31 04:09:15;;;;;;;5.37;1.60;;;12.20;99.90;;;;;;5034578;28;20216;-79
2023/05/31 04:11:42;;;;;;;4.67;2.00;;;12.20;99.90;;;;;;5035197;28;20203;-80
2023/05/31 04:14:10;;;;;;;3.77;1.60;;;12.20;99.90;;;;;;5016818;28;20722;-80
2023/05/31 04:16:37;;;;;;;3.60;1.40;;;12.20;99.90;;;;;;5034874;28;20274;-80
2023/05/31 04:19:04;;;;;;;4.70;1.40;;;12.30;99.90;;;;;;5017148;28;20323;-80
2023/05/31 04:21:32;;;;;;;6.07;2.00;;;12.30;99.90;;;;;;5034856;28;20577;-80
2023/05/31 04:23:59;;;;;;;4.30;1.43;;;12.40;99.90;;;;;;5034725;28;20290;-80
2023/05/31 04:26:27;;;;;;;2.87;1.30;;;12.40;99.90;;;;;;5000198;28;20963;-80
2023/05/31 04:28:54;;;;;;;3.43;1.60;;;12.40;99.90;;;;;;5034194;28;20604;-80
2023/05/31 04:31:24;;;;;;;4.83;1.50;;;12.40;99.90;;;;;;5025197;28;20770;-77
2023/05/31 04:34:18;;;;;;;3.80;1.40;;;12.50;99.90;;;;;;5016349;28;20598;-78
2023/05/31 04:36:51;;;;;;;4.27;1.30;;;12.40;99.90;;;;;;5036197;28;20270;-77
2023/05/31 04:39:22;;;;;;;3.77;1.10;;;12.50;99.90;;;;;;5018185;28;20227;-78
2023/05/31 04:41:49;;;;;;;3.33;1.53;;;12.50;99.90;;;;;;5035561;28;20184;-78
2023/05/31 04:44:18;;;;;;;5.30;1.40;;;12.60;99.90;;;;;;5034181;28;20216;-79
2023/05/31 04:46:46;;;;;;;4.47;1.30;;;12.60;99.90;;;;;;5033864;28;20531;-79
2023/05/31 04:49:13;;;;;;;3.90;1.23;;;12.60;99.90;;;;;;5016114;28;20250;-81
2023/05/31 04:51:41;;;;;;;2.00;1.20;;;12.70;99.90;;;;;;5033894;28;20242;-78
2023/05/31 04:54:08;;;;;;;3.53;1.50;;;12.80;99.90;;;;;;5015744;28;20227;-79
2023/05/31 04:56:35;;;;;;;2.57;1.03;;;12.80;99.90;;;;;;4999436;28;20664;-78
2023/05/31 04:59:02;;;;;;;4.77;1.27;;;12.80;99.90;;;;;;5033814;28;20195;-79
2023/05/31 05:01:29;;;;;;;5.13;1.30;;;13.00;99.90;;;;;;5015675;28;20195;-81
2023/05/31 05:03:56;;;;;;;4.13;1.57;;;13.00;99.90;;;;;;5033673;28;20274;-79
2023/05/31 05:06:24;;;;;;;9.03;1.63;;;12.90;99.90;;;;;;5015741;28;20194;-80
2023/05/31 05:08:51;;;;;;;2.70;1.37;;;13.00;99.90;;;;;;4999346;28;20203;-80
2023/05/31 05:11:18;;;;;;;4.67;1.33;;;13.10;99.90;;;;;;5015604;28;20563;-80
2023/05/31 05:13:45;;;;;;;3.33;1.30;;;13.10;99.90;;;;;;5031872;28;20215;-79
2023/05/31 05:16:12;;;;;;;3.10;1.20;;;13.10;99.90;;;;;;4998920;28;20242;-77
2023/05/31 05:18:40;;;;;;;3.63;1.40;;;13.20;99.90;;;;;;5015462;28;20254;-79
2023/05/31 05:21:07;;;;;;;6.07;1.60;;;13.30;99.90;;;;;;5015397;28;20274;-79
2023/05/31 05:23:35;;;;;;;4.37;1.60;;;13.40;99.90;;;;;;5015602;28;20274;-80
2023/05/31 05:26:03;;;;;;;3.37;1.40;;;13.50;99.90;;;;;;5015376;28;20686;-88
2023/05/31 05:28:30;;;;;;;4.07;1.80;;;13.50;99.90;;;;;;5015263;28;20204;-77
2023/05/31 05:30:57;;;;;;;2.67;1.37;;;13.50;99.90;;;;;;5015372;28;20207;-80
2023/05/31 05:33:26;;;;;;;5.67;1.30;;;13.60;99.90;;;;;;5015062;28;20656;-79
2023/05/31 05:35:53;;;;;;;6.40;1.70;;;13.70;99.90;;;;;;5015058;28;20219;-79
2023/05/31 05:38:20;;;;;;;7.10;2.03;;;13.60;99.90;;;;;;5006981;28;20302;-79
2023/05/31 05:40:47;;;;;;;3.03;1.40;;;13.70;99.90;;;;;;5014873;28;20582;-80
2023/05/31 05:43:14;;;;;;;2.43;1.30;;;13.70;99.90;;;;;;5014841;28;20580;-78
2023/05/31 05:45:41;;;;;;;5.23;1.40;;;13.80;99.90;;;;;;5014720;28;20310;-80
2023/05/31 05:48:09;;;;;;;3.40;1.30;;;13.80;99.90;;;;;;5014748;28;20222;-80
2023/05/31 05:50:36;;;;;;;5.80;1.43;;;13.90;99.90;;;;;;5032387;28;20207;-81
2023/05/31 05:53:03;;;;;;;5.40;1.47;;;13.80;99.90;;;;;;4998824;28;20199;-80
2023/05/31 05:55:30;;;;;;;4.70;1.67;;;14.00;99.90;;;;;;4998245;28;20255;-79
2023/05/31 05:57:57;;;;;;;3.33;1.37;;;13.90;99.90;;;;;;5014249;28;20298;-79
2023/05/31 06:00:24;;;;;;;4.70;1.30;;;14.00;99.90;;;;;;5032904;28;20235;-78
2023/05/31 06:02:51;;;;;;;4.30;2.00;;;14.10;99.90;;;;;;5032180;28;20200;-80
2023/05/31 06:05:25;;;;;;;3.30;1.40;;;14.30;99.90;;;;;;4998142;28;20246;-80
2023/05/31 06:07:53;;;;;;;4.20;1.60;;;14.40;99.90;;;;;;5014460;28;20184;-81
2023/05/31 06:10:20;;;;;;;6.10;1.70;;;14.50;99.90;;;;;;5014488;28;20285;-81
2023/05/31 06:12:46;;;;;;;5.53;1.30;;;14.60;99.90;;;;;;4997972;28;20242;-82
2023/05/31 06:15:15;;;;;;;4.33;1.90;;;14.80;99.90;;;;;;5032284;28;20734;-81
2023/05/31 06:17:42;;;;;;;3.70;1.30;;;14.80;99.90;;;;;;5032776;28;20219;-80
2023/05/31 06:20:10;;;;;;;3.80;1.50;;;14.90;99.90;;;;;;5014586;28;20212;-82
2023/05/31 06:22:37;;;;;;;3.57;1.27;;;15.10;99.90;;;;;;5032360;28;20194;-82
2023/05/31 06:25:05;;;;;;;3.20;1.43;;;15.20;99.90;;;;;;5014802;28;20266;-86
2023/05/31 06:27:32;;;;;;;4.70;1.10;;;15.20;99.90;;;;;;5015258;28;20249;-85
2023/05/31 06:29:59;;;;;;;3.07;1.20;;;15.30;99.90;;;;;;5015769;28;20223;-87
2023/05/31 06:32:30;;;;;;;3.73;1.50;;;15.30;99.90;;;;;;5015390;28;20192;-86
2023/05/31 06:34:57;;;;;;;3.77;1.20;;;15.40;99.90;;;;;;5014387;28;20635;-85
2023/05/31 06:37:24;;;;;;;3.97;1.20;;;15.50;99.90;;;;;;5014497;28;20199;-87
2023/05/31 06:39:51;;;;;;;4.50;1.20;;;15.60;99.90;;;;;;5014846;28;20286;-85
2023/05/31 06:42:18;;;;;;;8.70;1.60;;;15.80;99.90;;;;;;5014583;28;20196;-85
2023/05/31 06:44:45;;;;;;;6.77;1.43;;;15.80;99.90;;;;;;5015011;28;20216;-87
2023/05/31 06:47:22;;;;;;;4.90;1.60;;;15.90;99.90;;;;;;5033760;28;20241;-88
2023/05/31 06:49:49;;;;;;;3.53;1.30;;;15.90;99.50;;;;;;5016362;28;20606;-89
2023/05/31 06:52:16;;;;;;;4.90;1.57;;;15.90;96.00;;;;;;5017198;28;20200;-89
2023/05/31 06:54:44;;;;;;;5.20;1.60;;;15.80;97.00;;;;;;5016516;28;20306;-85
2023/05/31 06:57:11;;;;;;;5.00;1.70;;;15.90;97.20;;;;;;5017735;28;20187;-87
2023/05/31 06:59:38;;;;;;;3.33;1.30;;;16.00;96.30;;;;;;5002578;28;20211;-83
2023/05/31 07:02:06;;;;;;;4.30;1.20;;;16.10;95.70;;;;;;5037492;28;20196;-85
2023/05/31 07:04:33;;;;;;;7.43;1.90;;;16.20;93.70;;;;;;5006397;28;20230;-86
2023/05/31 07:07:00;;;;;;;3.63;1.60;;;16.30;92.30;;;;;;5021677;28;20204;-85
2023/05/31 07:09:27;;;;;;;3.17;1.47;;;16.30;89.30;;;;;;5041782;28;20216;-84
2023/05/31 07:11:54;;;;;;;8.73;1.67;;;16.30;91.50;;;;;;5029804;28;20210;-86
2023/05/31 07:14:22;;;;;;;5.80;1.40;;;16.40;90.90;;;;;;5031938;28;20333;-87
2023/05/31 07:16:50;;;;;;;4.73;1.30;;;16.40;90.30;;;;;;5022374;28;20315;-85
2023/05/31 07:19:17;;;;;;;2.17;1.10;;;16.50;90.00;;;;;;5024235;28;20361;-86
2023/05/31 07:21:44;;;;;;;4.10;1.40;;;16.60;86.20;;;;;;5017868;28;20319;-86
2023/05/31 07:24:10;;;;;;;5.00;1.60;;;16.70;84.50;;;;;;5000069;28;20216;-87
2023/05/31 07:26:37;;;;;;;3.07;1.10;;;16.60;82.60;;;;;;5014363;28;20200;-87
2023/05/31 07:29:04;;;;;;;2.10;1.20;;;16.70;79.90;;;;;;4998179;28;20247;-84
2023/05/31 07:31:32;;;;;;;3.93;1.33;;;16.60;78.80;;;;;;4997900;28;20193;-86
2023/05/31 07:33:59;;;;;;;3.87;1.47;;;16.80;85.20;;;;;;4997868;28;20291;-87
2023/05/31 07:36:26;;;;;;;6.43;1.50;;;16.90;85.10;;;;;;4997763;28;20203;-87
2023/05/31 07:39:16;;;;;;;5.23;2.00;;;16.90;79.30;;;;;;5015173;28;20200;-86
2023/05/31 07:41:43;;;;;;;4.20;1.50;;;17.10;81.30;;;;;;4981711;28;20656;-85
2023/05/31 07:44:11;;;;;;;3.33;1.30;;;17.10;76.20;;;;;;5014884;28;20609;-84
2023/05/31 07:46:38;;;;;;;3.57;1.20;;;17.20;77.90;;;;;;4997337;28;20224;-86
2023/05/31 07:49:05;;;;;;;3.67;1.40;;;17.30;79.80;;;;;;5014930;28;20219;-85
2023/05/31 07:51:32;;;;;;;5.17;1.50;;;17.40;72.40;;;;;;4997176;28;20204;-86
2023/05/31 07:53:59;;;;;;;3.63;1.30;;;17.50;70.80;;;;;;4997105;28;20207;-85
2023/05/31 07:56:26;;;;;;;4.43;1.23;;;17.50;70.90;;;;;;5013577;28;20611;-85
2023/05/31 07:58:53;;;;;;;3.77;1.20;;;17.60;69.90;;;;;;4997486;28;20290;-86
2023/05/31 08:01:20;;;;;;;3.30;1.17;;;17.70;69.70;;;;;;4998263;28;20222;-86
2023/05/31 08:03:49;;;;;;;3.30;1.20;;;17.80;70.30;;;;;;4997706;28;20270;-89
2023/05/31 08:06:16;;;;;;;5.13;1.27;;;17.80;68.30;;;;;;5015779;28;20620;-86
2023/05/31 08:08:44;;;;;;;2.43;1.10;;;17.80;66.30;;;;;;4998272;28;20276;-86
2023/05/31 08:11:11;;;;;;;3.17;1.20;;;17.70;62.90;;;;;;4998974;28;20227;-86
2023/05/31 08:13:39;;;;;;;4.77;1.40;;;17.70;63.00;;;;;;4997800;28;20285;-86
2023/05/31 08:16:06;;;;;;;3.60;1.10;;;17.40;61.50;;;;;;5015794;28;20243;-84
2023/05/31 08:18:33;;;;;;;3.37;1.10;;;17.50;63.50;;;;;;4998059;28;20258;-85
2023/05/31 08:21:00;;;;;;;4.60;1.40;;;18.30;64.40;;;;;;5004271;28;20718;-84
2023/05/31 08:23:27;;;;;;;3.30;1.10;;;19.30;63.60;;;;;;5016727;28;20191;-85
2023/05/31 08:25:54;;;;;;;3.05;1.15;;;20.30;58.80;;;;;;5013547;28;20217;-84
2023/05/31 08:28:21;;;;;;;3.25;1.17;;;21.10;56.20;;;;;;5016847;28;20266;-86
2023/05/31 08:30:48;;;;;;;2.58;1.40;;;21.80;53.70;;;;;;5033061;28;20246;-86
2023/05/31 08:33:15;;;;;;;5.15;1.20;;;22.40;52.70;;;;;;5034977;28;20210;-86
2023/05/31 08:35:42;;;;;;;3.65;1.25;;;22.70;52.20;;;;;;5000877;28;20650;-85
2023/05/31 08:38:10;;;;;;;4.28;1.45;;;22.80;51.80;;;;;;5017200;28;20199;-86
2023/05/31 08:40:38;;;;;;;3.95;1.27;;;23.00;50.90;;;;;;5034716;28;20214;-86
2023/05/31 08:43:15;;;;;;;5.88;1.27;;;23.30;52.40;;;;;;5034489;28;20263;-85
2023/05/31 08:45:43;;;;;;;2.63;1.27;;;22.80;50.20;;;;;;5015863;28;20250;-85
2023/05/31 08:48:35;;;;;;;3.33;1.20;;;23.20;50.00;;;;;;5016411;28;20210;-84
2023/05/31 08:51:05;;;;;;;1.67;1.10;;;23.80;48.00;;;;;;5015715;28;20239;-85
2023/05/31 08:53:57;;;;;;;2.50;1.15;;;23.40;45.90;;;;;;5015899;28;20176;-87
2023/05/31 08:56:26;;;;;;;1.90;1.08;;;23.20;45.50;;;;;;5034124;28;20776;-84
2023/05/31 08:58:54;;;;;;;3.80;1.08;;;23.20;46.50;;;;;;5015935;28;20599;-86
2023/05/31 09:01:23;;;;;;;2.78;1.30;;;23.50;49.20;;;;;;5032994;28;20192;-86
2023/05/31 09:03:53;;;;;;;3.78;1.27;;;23.90;47.00;;;;;;5016513;28;20357;-87
2023/05/31 09:06:20;;;;;;;2.65;1.10;;;24.50;46.90;;;;;;5015959;28;20223;-84
2023/05/31 09:08:48;;;;;;;2.75;1.05;;;23.70;45.20;;;;;;4995416;28;20286;-86
2023/05/31 09:11:40;;;;;;;2.95;1.30;;;23.40;45.20;;;;;;5028424;28;20233;-85
2023/05/31 09:14:11;;;;;;;2.47;1.10;;;24.10;45.90;;;;;;5016140;28;20227;-86
2023/05/31 09:16:38;;;;;;;3.47;1.33;;;23.60;44.50;;;;;;5034268;28;20203;-86
2023/05/31 09:19:06;;;;;;;2.35;1.10;;;23.70;44.50;;;;;;5033845;28;20580;-86
2023/05/31 09:21:43;;;;;;;2.92;1.20;;;22.70;44.70;;;;;;5015659;28;20326;-85
2023/05/31 09:24:13;;;;;;;2.15;1.20;;;23.00;45.70;;;;;;5015142;28;20218;-85
2023/05/31 09:26:50;;;;;;;7.57;1.25;;;22.70;45.80;;;;;;4999039;28;20195;-83
2023/05/31 09:29:19;;;;;;;2.72;1.05;;;22.60;45.50;;;;;;5031772;28;20219;-85
2023/05/31 09:31:47;;;;;;;1.48;0.90;;;22.80;45.50;;;;;;5032759;28;20602;-84
2023/05/31 09:34:29;;;;;;;1.73;1.10;;;23.00;44.60;;;;;;5033243;28;20314;-86
2023/05/31 09:36:59;;;;;;;3.03;1.10;;;22.90;43.50;;;;;;5016189;28;20179;-85
2023/05/31 09:39:26;;;;;;;3.83;1.23;;;23.40;44.40;;;;;;5033982;28;20231;-86
2023/05/31 09:41:56;;;;;;;3.35;1.13;;;23.50;44.40;;;;;;5016767;28;20223;-86
2023/05/31 09:44:27;;;;;;;4.57;1.02;;;23.20;42.30;;;;;;5016269;28;20211;-86
2023/05/31 09:46:55;;;;;;;2.35;0.93;;;23.30;42.50;;;;;;5016299;28;20192;-86
2023/05/31 09:49:24;;;;;;;2.03;1.17;;;23.40;41.90;;;;;;5015652;28;20307;-85
2023/05/31 09:51:52;;;;;;;2.70;1.00;;;23.70;42.20;;;;;;5033209;28;20596;-85
2023/05/31 09:54:24;;;;;;;2.17;1.20;;;24.50;41.20;;;;;;5015337;28;20222;-86
2023/05/31 09:56:53;;;;;;;5.95;1.77;;;24.60;42.20;;;;;;5028754;28;20252;-86
2023/05/31 09:59:21;;;;;;;2.38;1.20;;;24.50;43.60;;;;;;5015798;28;20301;-85
2023/05/31 10:01:50;;;;;;;2.15;1.10;;;25.10;42.10;;;;;;5016044;28;20196;-85
2023/05/31 10:04:19;;;;;;;2.33;1.10;;;25.70;43.30;;;;;;5033031;28;20306;-87
2023/05/31 10:06:47;;;;;;;2.72;1.10;;;25.10;39.10;;;;;;5033595;28;20628;-85
2023/05/31 10:09:15;;;;;;;2.20;1.05;;;25.30;40.70;;;;;;5015766;28;20215;-86
2023/05/31 10:11:49;;;;;;;2.03;1.00;;;25.50;40.00;;;;;;5033802;28;20198;-86
2023/05/31 10:14:27;;;;;;;1.20;1.00;;;24.90;40.40;;;;;;5016105;28;20578;-85
2023/05/31 10:16:56;;;;;;;2.38;0.80;;;25.20;41.70;;;;;;5015631;28;20215;-85
2023/05/31 10:19:27;;;;;;;3.55;1.20;;;25.70;38.60;;;;;;5015465;28;20210;-86
2023/05/31 10:21:58;;;;;;;2.35;0.95;;;25.40;38.90;;;;;;5033316;28;20309;-86
2023/05/31 10:24:35;;;;;;;2.88;1.23;;;25.80;38.30;;;;;;5034317;28;20617;-86
2023/05/31 10:27:08;;;;;;;1.63;1.00;;;25.70;37.50;;;;;;5016194;28;20203;-85
2023/05/31 10:29:44;;;;;;;3.28;1.35;;;25.80;38.70;;;;;;5033705;28;20207;-86
2023/05/31 10:32:23;;;;;;;1.75;1.02;;;26.10;39.50;;;;;;5015437;28;20199;-85
2023/05/31 10:34:51;;;;;;;5.43;1.40;;;26.80;40.50;;;;;;5027486;28;20310;-87
2023/05/31 10:37:19;;;;;;;4.45;1.23;;;27.20;39.80;;;;;;5014512;28;20199;-89
2023/05/31 10:39:59;;;;;;;3.58;1.10;;;27.30;38.90;;;;;;5015171;28;20222;-86
2023/05/31 10:42:55;;;;;;;2.75;1.10;;;27.60;37.30;;;;;;5000356;28;20257;-87
2023/05/31 10:45:40;;;;;;;1.92;1.02;;;27.40;37.50;;;;;;5021562;28;20635;-86
2023/05/31 10:48:33;;;;;;;2.78;1.10;;;27.20;37.40;;;;;;5006722;28;20191;-85
2023/05/31 10:51:01;;;;;;;3.45;1.00;;;27.40;39.10;;;;;;5024234;28;20226;-87
2023/05/31 10:53:36;;;;;;;2.63;1.17;;;27.90;39.80;;;;;;5022555;28;20643;-86
2023/05/31 10:56:11;;;;;;;3.70;1.13;;;28.30;36.70;;;;;;5036709;28;20313;-86
2023/05/31 10:58:39;;;;;;;3.72;1.10;;;27.90;36.40;;;;;;5023373;28;20175;-87
2023/05/31 11:01:08;;;;;;;2.75;1.08;;;28.30;37.10;;;;;;5038923;28;20226;-86
2023/05/31 11:03:44;;;;;;;3.30;1.33;;;28.90;37.80;;;;;;5019194;28;20195;-86
2023/05/31 11:06:14;;;;;;;5.50;1.20;;;29.30;37.60;;;;;;5019633;28;20195;-87
2023/05/31 11:09:10;;;;;;;2.38;1.00;;;28.80;36.20;;;;;;5003367;28;20629;-88
2023/05/31 11:11:59;;;;;;;2.70;1.02;;;28.80;36.10;;;;;;5022859;28;20202;-87
2023/05/31 11:14:31;;;;;;;3.10;1.10;;;28.50;35.80;;;;;;5032303;28;20226;-86
2023/05/31 11:17:02;;;;;;;2.85;1.00;;;28.60;36.70;;;;;;5016522;28;20223;-86
2023/05/31 11:19:34;;;;;;;3.97;1.38;;;28.20;37.30;;;;;;5003197;28;20215;-87
2023/05/31 11:22:10;;;;;;;3.20;1.33;;;27.90;37.00;;;;;;5024139;28;20273;-90
2023/05/31 11:24:38;;;;;;;3.55;1.20;;;27.20;37.60;;;;;;5039041;28;20672;-88
2023/05/31 11:27:10;;;;;;;2.47;1.17;;;27.50;39.20;;;;;;5034627;28;20293;-88
2023/05/31 11:29:52;;;;;;;2.50;1.33;;;28.20;38.90;;;;;;5019386;28;20250;-86
2023/05/31 11:32:35;;;;;;;3.25;1.25;;;29.20;39.50;;;;;;5020562;28;20202;-87
2023/05/31 11:35:24;;;;;;;2.13;1.27;;;29.40;36.60;;;;;;5035260;28;20212;-87
2023/05/31 11:37:59;;;;;;;4.60;1.30;;;29.40;36.70;;;;;;5001369;28;20616;-85
2023/05/31 11:40:28;;;;;;;4.47;1.15;;;29.10;37.40;;;;;;5026753;28;20226;-85
2023/05/31 11:43:02;;;;;;;2.13;1.33;;;29.30;37.80;;;;;;5017847;28;20651;-86
2023/05/31 11:45:32;;;;;;;3.35;1.23;;;29.40;35.10;;;;;;5035391;28;20211;-87
2023/05/31 11:48:08;;;;;;;1.20;0.88;;;29.20;37.10;;;;;;5017489;28;20290;-85
2023/05/31 11:50:35;;;;;;;2.15;1.15;;;29.80;37.50;;;;;;5017349;28;20586;-85
2023/05/31 11:53:03;;;;;;;2.47;0.80;;;30.20;37.10;;;;;;5034969;28;20683;-86
2023/05/31 11:55:35;;;;;;;4.78;1.40;;;29.90;35.20;;;;;;5033681;28;20269;-85
2023/05/31 11:58:06;;;;;;;3.95;1.30;;;30.30;35.10;;;;;;5031572;28;20187;-85
2023/05/31 12:00:34;;;;;;;2.17;1.02;;;30.80;36.00;;;;;;5017395;28;20235;-85
2023/05/31 12:03:04;;;;;;;2.55;1.10;;;30.80;35.60;;;;;;5035016;28;20241;-86
2023/05/31 12:05:31;;;;;;;3.55;1.20;;;29.70;35.30;;;;;;5035058;28;20220;-86
2023/05/31 12:07:58;;;;;;;2.35;1.30;;;29.40;36.90;;;;;;5000893;28;20200;-85
2023/05/31 12:10:32;;;;;;;4.88;1.40;;;28.50;35.80;;;;;;5035355;28;20302;-84
2023/05/31 12:12:58;;;;;;;2.08;1.40;;;28.20;36.90;;;;;;5031503;28;20234;-85
2023/05/31 12:15:30;;;;;;;2.85;1.30;;;28.40;36.40;;;;;;5017337;28;20331;-85
2023/05/31 12:18:00;;;;;;;1.45;1.00;;;27.70;38.10;;;;;;5017697;28;20699;-85
2023/05/31 12:20:33;;;;;;;2.10;1.30;;;28.70;38.50;;;;;;5034779;28;20258;-84
2023/05/31 12:23:14;;;;;;;2.30;1.33;;;29.60;36.90;;;;;;5019866;28;20203;-85
2023/05/31 12:25:49;;;;;;;5.57;1.20;;;30.40;36.10;;;;;;5034094;28;20258;-85
2023/05/31 12:28:17;;;;;;;2.30;1.20;;;30.40;36.80;;;;;;5034865;28;20727;-85
2023/05/31 12:30:46;;;;;;;3.88;1.38;;;31.20;34.60;;;;;;5017320;28;20216;-85
2023/05/31 12:33:15;;;;;;;2.67;1.20;;;31.40;34.50;;;;;;5019488;28;20222;-87
2023/05/31 12:35:44;;;;;;;5.70;1.20;;;31.50;34.40;;;;;;5017661;28;20227;-83
2023/05/31 12:38:11;;;;;;;4.05;1.30;;;30.70;35.10;;;;;;5016462;28;20263;-84
2023/05/31 12:40:41;;;;;;;2.70;1.00;;;31.20;34.50;;;;;;5016569;28;20216;-83
2023/05/31 12:43:09;;;;;;;5.50;1.25;;;31.10;34.10;;;;;;5017250;28;20287;-86
2023/05/31 12:45:40;;;;;;;2.42;1.45;;;31.50;35.50;;;;;;5017658;28;20230;-85
2023/05/31 12:48:10;;;;;;;4.53;1.50;;;31.80;34.00;;;;;;5035138;28;20191;-84
2023/05/31 12:50:44;;;;;;;3.35;1.27;;;32.00;33.00;;;;;;5017865;28;20684;-84
2023/05/31 12:53:12;;;;;;;2.10;1.20;;;32.40;33.90;;;;;;5016871;28;20242;-85
2023/05/31 12:55:39;;;;;;;2.30;1.17;;;32.90;32.70;;;;;;5016532;28;20228;-85
2023/05/31 12:58:07;;;;;;;2.47;1.30;;;32.90;32.20;;;;;;5033994;28;20274;-85
2023/05/31 13:00:34;;;;;;;4.00;1.50;;;33.00;32.70;;;;;;5032845;28;20211;-85